createdAt,value
2023-02-03T00:00:06.257Z,22.18
2023-02-03T00:01:06.334Z,22.18
2023-02-03T00:02:06.510Z,22.18
2023-02-03T00:03:06.564Z,22.18
2023-02-03T00:04:06.555Z,22.18
2023-02-03T00:05:06.627Z,22.18
2023-02-03T00:06:06.670Z,22.18
2023-02-03T00:07:06.733Z,22.18
2023-02-03T00:08:06.857Z,22.19
2023-02-03T00:09:06.913Z,22.18
2023-02-03T00:10:06.967Z,22.18
2023-02-03T00:11:07.036Z,22.19
2023-02-03T00:12:07.078Z,22.19
2023-02-03T00:13:07.122Z,22.20
2023-02-03T00:14:07.237Z,22.20
2023-02-03T00:15:07.309Z,22.21
2023-02-03T00:16:07.378Z,22.21
2023-02-03T00:17:07.436Z,22.21
2023-02-03T00:18:07.516Z,22.22
2023-02-03T00:19:07.604Z,22.22
2023-02-03T00:20:07.683Z,22.22
2023-02-03T00:21:07.754Z,22.24
2023-02-03T00:22:07.857Z,22.24
2023-02-03T00:23:07.895Z,22.25
2023-02-03T00:24:07.980Z,22.25
2023-02-03T00:25:08.056Z,22.26
2023-02-03T00:26:08.129Z,22.27
2023-02-03T00:27:08.217Z,22.28
2023-02-03T00:28:08.360Z,22.30
2023-02-03T00:29:08.317Z,22.31
2023-02-03T00:30:08.399Z,22.32
2023-02-03T00:31:08.500Z,22.33
2023-02-03T00:32:08.786Z,22.34
2023-02-03T00:33:08.601Z,22.35
2023-02-03T00:34:08.667Z,22.38
2023-02-03T00:35:08.729Z,22.38
2023-02-03T00:36:08.809Z,22.39
2023-02-03T00:37:08.832Z,22.40
2023-02-03T00:38:08.959Z,22.42
2023-02-03T00:39:09.018Z,22.43
2023-02-03T00:40:09.048Z,22.44
2023-02-03T00:41:09.118Z,22.46
2023-02-03T00:42:09.154Z,22.48
2023-02-03T00:43:09.227Z,22.49
2023-02-03T00:44:09.266Z,22.50
2023-02-03T00:45:09.337Z,22.51
2023-02-03T00:46:09.449Z,22.53
2023-02-03T00:47:09.452Z,22.54
2023-02-03T00:48:09.487Z,22.56
2023-02-03T00:49:09.593Z,22.56
2023-02-03T00:50:09.641Z,22.58
2023-02-03T00:51:09.723Z,22.59
2023-02-03T00:52:09.769Z,22.60
2023-02-03T00:53:09.792Z,22.62
2023-02-03T00:54:09.861Z,22.62
2023-02-03T00:55:09.937Z,22.63
2023-02-03T00:56:09.985Z,22.64
2023-02-03T00:57:10.007Z,22.66
2023-02-03T00:58:10.061Z,22.67
2023-02-03T00:59:10.173Z,22.68
2023-02-03T01:00:10.200Z,22.68
2023-02-03T01:01:10.370Z,22.70
2023-02-03T01:02:10.381Z,22.70
2023-02-03T01:03:10.336Z,22.71
2023-02-03T01:04:10.379Z,22.71
2023-02-03T01:05:11.259Z,22.73
2023-02-03T01:06:10.462Z,22.74
2023-02-03T01:07:10.515Z,22.74
2023-02-03T01:08:10.590Z,22.75
2023-02-03T01:09:10.607Z,22.76
2023-02-03T01:10:10.655Z,22.77
2023-02-03T01:11:10.695Z,22.79
2023-02-03T01:12:10.737Z,22.79
2023-02-03T01:13:10.783Z,22.79
2023-02-03T01:14:10.823Z,22.80
2023-02-03T01:15:10.857Z,22.81
2023-02-03T01:16:10.932Z,22.81
2023-02-03T01:17:10.968Z,22.82
2023-02-03T01:18:10.979Z,22.82
2023-02-03T01:19:11.056Z,22.83
2023-02-03T01:20:11.087Z,22.83
2023-02-03T01:21:11.100Z,22.85
2023-02-03T01:22:11.142Z,22.85
2023-02-03T01:23:11.212Z,22.86
2023-02-03T01:24:11.251Z,22.87
2023-02-03T01:25:11.291Z,22.87
2023-02-03T01:26:11.332Z,22.87
2023-02-03T01:27:11.330Z,22.88
2023-02-03T01:28:11.397Z,22.89
2023-02-03T01:29:11.445Z,22.89
2023-02-03T01:30:11.487Z,22.90
2023-02-03T01:31:11.790Z,22.90
2023-02-03T01:32:11.557Z,22.91
2023-02-03T01:33:11.567Z,22.92
2023-02-03T01:34:11.591Z,22.93
2023-02-03T01:35:11.617Z,22.94
2023-02-03T01:36:11.649Z,22.95
2023-02-03T01:37:11.686Z,22.95
2023-02-03T01:38:11.750Z,22.95
2023-02-03T01:39:11.775Z,22.96
2023-02-03T01:40:11.816Z,22.96
2023-02-03T01:41:11.811Z,22.97
2023-02-03T01:42:11.850Z,22.97
2023-02-03T01:43:11.897Z,22.98
2023-02-03T01:44:11.957Z,22.98
2023-02-03T01:45:13.535Z,22.98
2023-02-03T01:46:12.017Z,22.98
2023-02-03T02:19:12.965Z,23.13
2023-02-03T02:20:12.975Z,23.13
2023-02-03T02:21:12.976Z,23.13
2023-02-03T02:22:13.035Z,23.13
2023-02-03T02:23:13.036Z,23.13
2023-02-03T02:24:13.058Z,23.13
2023-02-03T02:25:13.091Z,23.13
2023-02-03T02:26:13.091Z,23.13
2023-02-03T02:27:13.160Z,23.14
2023-02-03T02:28:13.210Z,23.13
2023-02-03T02:29:13.188Z,23.13
2023-02-03T02:30:13.183Z,23.13
2023-02-03T02:31:13.295Z,23.13
2023-02-03T02:32:13.259Z,23.13
2023-02-03T02:33:13.294Z,23.13
2023-02-03T02:34:13.330Z,23.13
2023-02-03T02:35:13.353Z,23.13
2023-02-03T02:36:13.356Z,23.13
2023-02-03T02:37:13.412Z,23.13
2023-02-03T02:38:13.440Z,23.12
2023-02-03T02:39:13.486Z,23.13
2023-02-03T02:40:13.474Z,23.12
2023-02-03T02:41:13.467Z,23.12
2023-02-03T02:42:13.540Z,23.13
2023-02-03T02:43:13.591Z,23.12
2023-02-03T02:44:13.604Z,23.12
2023-02-03T02:45:13.599Z,23.12
2023-02-03T02:46:13.681Z,23.11
2023-02-03T02:47:13.672Z,23.11
2023-02-03T02:48:13.671Z,23.11
2023-02-03T02:49:13.724Z,23.11
2023-02-03T02:50:13.749Z,23.11
2023-02-03T02:51:13.816Z,23.11
2023-02-03T02:52:13.802Z,23.10
2023-02-03T02:53:13.821Z,23.10
2023-02-03T02:54:13.850Z,23.10
2023-02-03T02:55:13.899Z,23.10
2023-02-03T02:56:15.613Z,23.09
2023-02-03T02:57:13.943Z,23.09
2023-02-03T02:58:13.989Z,23.08
2023-02-03T02:59:14.005Z,23.08
2023-02-03T03:00:14.049Z,23.08
2023-02-03T03:01:14.117Z,23.08
2023-02-03T03:02:14.130Z,23.06
2023-02-03T03:03:14.169Z,23.08
2023-02-03T03:04:14.194Z,23.07
2023-02-03T03:05:14.241Z,23.06
2023-02-03T03:06:14.249Z,23.06
2023-02-03T03:07:14.262Z,23.06
2023-02-03T03:08:14.308Z,23.05
2023-02-03T03:09:14.361Z,23.05
2023-02-03T03:10:14.396Z,23.05
2023-02-03T03:11:14.397Z,23.03
2023-02-03T03:12:14.428Z,23.04
2023-02-03T03:13:14.462Z,23.02
2023-02-03T03:14:14.509Z,23.03
2023-02-03T03:15:14.522Z,23.02
2023-02-03T03:16:14.669Z,23.02
2023-02-03T03:17:14.601Z,23.01
2023-02-03T03:18:14.648Z,23.01
2023-02-03T03:19:14.646Z,23.00
2023-02-03T03:20:14.711Z,23.01
2023-02-03T03:21:14.735Z,23.00
2023-02-03T03:22:14.799Z,23.00
2023-02-03T03:23:14.817Z,23.00
2023-02-03T03:24:14.853Z,22.99
2023-02-03T03:25:14.891Z,22.98
2023-02-03T03:26:14.935Z,22.98
2023-02-03T03:27:15.008Z,22.98
2023-02-03T03:28:15.044Z,22.98
2023-02-03T03:29:15.027Z,22.97
2023-02-03T03:30:15.055Z,22.97
2023-02-03T03:31:15.164Z,22.96
2023-02-03T03:32:15.128Z,22.96
2023-02-03T03:33:15.143Z,22.96
2023-02-03T03:34:15.225Z,22.96
2023-02-03T03:35:15.237Z,22.96
2023-02-03T03:36:15.286Z,22.95
2023-02-03T03:37:15.302Z,22.94
2023-02-03T03:38:15.364Z,22.95
2023-02-03T03:39:15.387Z,22.94
2023-02-03T03:40:15.433Z,22.93
2023-02-03T03:41:15.462Z,22.93
2023-02-03T03:42:15.524Z,22.93
2023-02-03T03:43:15.570Z,22.93
2023-02-03T03:44:15.557Z,22.92
2023-02-03T03:45:15.609Z,22.92
2023-02-03T03:46:15.664Z,22.91
2023-02-03T03:47:15.705Z,22.90
2023-02-03T03:48:15.738Z,22.90
2023-02-03T03:49:15.772Z,22.90
2023-02-03T03:50:15.807Z,22.90
2023-02-03T03:51:15.808Z,22.90
2023-02-03T03:52:15.862Z,22.89
2023-02-03T03:53:15.925Z,22.89
2023-02-03T03:54:15.958Z,22.89
2023-02-03T03:55:16.045Z,22.89
2023-02-03T03:56:16.057Z,22.88
2023-02-03T03:57:16.089Z,22.88
2023-02-03T03:58:16.147Z,22.87
2023-02-03T03:59:16.171Z,22.87
2023-02-03T04:00:16.227Z,22.87
2023-02-03T04:01:16.255Z,22.87
2023-02-03T04:02:16.413Z,22.86
2023-02-03T04:03:16.375Z,22.86
2023-02-03T04:04:16.415Z,22.86
2023-02-03T04:05:16.463Z,22.86
2023-02-03T04:06:16.489Z,22.85
2023-02-03T04:08:16.629Z,22.85
2023-02-03T04:09:16.652Z,22.85
2023-02-03T04:10:16.723Z,22.84
2023-02-03T04:11:16.762Z,22.83
2023-02-03T04:12:16.837Z,22.83
2023-02-03T04:13:16.918Z,22.83
2023-02-03T04:14:16.942Z,22.82
2023-02-03T04:15:16.983Z,22.81
2023-02-03T04:16:17.103Z,22.82
2023-02-03T04:17:17.088Z,22.80
2023-02-03T04:18:17.117Z,22.81
2023-02-03T04:19:17.194Z,22.80
2023-02-03T04:20:17.187Z,22.80
2023-02-03T04:21:17.275Z,22.79
2023-02-03T04:22:17.331Z,22.80
2023-02-03T04:23:17.354Z,22.79
2023-02-03T04:24:17.407Z,22.79
2023-02-03T04:25:17.496Z,22.77
2023-02-03T04:26:17.533Z,22.77
2023-02-03T04:27:17.606Z,22.77
2023-02-03T04:28:17.706Z,22.75
2023-02-03T04:29:17.706Z,22.73
2023-02-03T04:30:17.725Z,22.73
2023-02-03T04:31:17.907Z,22.72
2023-02-03T04:32:17.864Z,22.72
2023-02-03T04:33:17.903Z,22.72
2023-02-03T04:34:17.983Z,22.71
2023-02-03T04:35:18.016Z,22.72
2023-02-03T04:36:18.071Z,22.71
2023-02-03T04:37:18.155Z,22.71
2023-02-03T04:38:18.218Z,22.71
2023-02-03T04:39:18.274Z,22.72
2023-02-03T04:40:18.341Z,22.72
2023-02-03T04:41:18.351Z,22.72
2023-02-03T04:42:18.383Z,22.72
2023-02-03T04:43:18.476Z,22.72
2023-02-03T04:44:18.507Z,22.72
2023-02-03T04:45:18.569Z,22.71
2023-02-03T04:46:18.660Z,22.71
2023-02-03T04:47:18.660Z,22.72
2023-02-03T04:48:18.740Z,22.73
2023-02-03T04:49:18.770Z,22.73
2023-02-03T04:50:18.829Z,22.73
2023-02-03T04:51:18.927Z,22.73
2023-02-03T04:52:18.921Z,22.74
2023-02-03T04:53:18.965Z,22.74
2023-02-03T04:54:19.049Z,22.73
2023-02-03T06:01:29.325Z,22.86
2023-02-03T06:02:22.378Z,22.85
2023-02-03T06:03:22.472Z,22.86
2023-02-03T06:04:22.478Z,22.86
2023-02-03T06:05:22.403Z,22.86
2023-02-03T06:06:22.438Z,22.86
2023-02-03T06:07:22.485Z,22.87
2023-02-03T06:08:22.469Z,22.87
2023-02-03T06:09:22.492Z,22.88
2023-02-03T06:11:22.539Z,22.87
2023-02-03T06:12:22.502Z,22.88
2023-02-03T06:13:22.552Z,22.88
2023-02-03T06:14:22.702Z,22.89
2023-02-03T06:15:22.567Z,22.89
2023-02-03T06:16:22.617Z,22.89
2023-02-03T06:17:22.627Z,22.89
2023-02-03T06:19:22.700Z,22.89
2023-02-03T06:20:22.672Z,22.88
2023-02-03T06:21:22.673Z,22.88
2023-02-03T06:22:22.678Z,22.88
2023-02-03T06:23:22.737Z,22.89
2023-02-03T06:24:22.732Z,22.89
2023-02-03T06:25:22.734Z,22.89
2023-02-03T06:26:22.819Z,22.88
2023-02-03T06:27:22.762Z,22.88
2023-02-03T06:28:22.894Z,22.87
2023-02-03T06:29:22.794Z,22.87
2023-02-03T06:30:22.815Z,22.87
2023-02-03T06:31:23.099Z,22.86
2023-02-03T06:32:22.954Z,22.84
2023-02-03T06:34:23.562Z,22.77
2023-02-03T06:35:22.943Z,22.72
2023-02-03T06:36:22.973Z,22.64
2023-02-03T06:37:24.612Z,22.60
2023-02-03T06:38:22.986Z,22.58
2023-02-03T06:39:23.023Z,22.52
2023-02-03T06:40:23.860Z,22.47
2023-02-03T06:41:23.100Z,22.43
2023-02-03T06:42:23.153Z,22.40
2023-02-03T06:43:23.122Z,22.37
2023-02-03T06:44:23.203Z,22.34
2023-02-03T06:45:23.419Z,22.28
2023-02-03T06:46:23.229Z,22.28
2023-02-03T06:47:23.286Z,22.33
2023-02-03T06:48:23.265Z,22.32
2023-02-03T06:49:23.346Z,22.36
2023-02-03T06:50:23.595Z,22.41
2023-02-03T06:51:23.499Z,22.44
2023-02-03T06:52:23.544Z,22.45
2023-02-03T06:53:23.606Z,22.48
2023-02-03T06:54:23.651Z,22.51
2023-02-03T06:55:23.818Z,22.54
2023-02-03T06:56:23.823Z,22.56
2023-02-03T06:57:23.846Z,22.58
2023-02-03T06:58:23.895Z,22.60
2023-02-03T06:59:23.964Z,22.63
2023-02-03T07:00:24.011Z,22.65
2023-02-03T07:01:24.123Z,22.66
2023-02-03T07:02:24.163Z,22.68
2023-02-03T07:03:24.163Z,22.69
2023-02-03T07:04:24.245Z,22.69
2023-02-03T07:05:24.256Z,22.72
2023-02-03T07:06:24.321Z,22.74
2023-02-03T07:07:24.385Z,22.75
2023-02-03T07:08:24.429Z,22.77
2023-02-03T07:09:24.464Z,22.78
2023-02-03T07:10:24.538Z,22.79
2023-02-03T07:11:24.539Z,22.80
2023-02-03T07:12:24.611Z,22.80
2023-02-03T07:13:24.679Z,22.79
2023-02-03T07:14:24.695Z,22.80
2023-02-03T07:15:24.723Z,22.79
2023-02-03T07:16:24.767Z,22.79
2023-02-03T07:17:24.787Z,22.77
2023-02-03T07:18:46.943Z,22.77
2023-02-03T07:19:25.876Z,22.77
2023-02-03T07:20:25.053Z,22.77
2023-02-03T07:21:24.890Z,22.76
2023-02-03T07:22:24.895Z,22.76
2023-02-03T07:23:24.922Z,22.76
2023-02-03T07:24:24.984Z,22.77
2023-02-03T07:25:25.427Z,22.78
2023-02-03T07:26:24.995Z,22.79
2023-02-03T07:27:25.015Z,22.79
2023-02-03T07:28:25.021Z,22.79
2023-02-03T07:29:25.063Z,22.80
2023-02-03T07:30:25.073Z,22.80
2023-02-03T07:31:25.256Z,22.81
2023-02-03T07:32:25.112Z,22.82
2023-02-03T07:33:25.096Z,22.82
2023-02-03T07:34:25.160Z,22.83
2023-02-03T07:35:25.163Z,22.85
2023-02-03T07:36:25.170Z,22.85
2023-02-03T07:37:25.210Z,22.86
2023-02-03T07:38:25.256Z,22.85
2023-02-03T07:39:25.237Z,22.86
2023-02-03T07:40:25.615Z,22.87
2023-02-03T07:41:25.253Z,22.87
2023-02-03T07:42:25.346Z,22.88
2023-02-03T07:43:25.370Z,22.88
2023-02-03T07:44:25.423Z,22.89
2023-02-03T07:45:25.461Z,22.89
2023-02-03T07:46:25.578Z,22.90
2023-02-03T07:47:25.553Z,22.90
2023-02-03T07:48:25.571Z,22.90
2023-02-03T07:49:25.652Z,22.91
2023-02-03T07:50:25.945Z,22.91
2023-02-03T07:51:25.690Z,22.91
2023-02-03T07:52:25.711Z,22.92
2023-02-03T07:53:25.813Z,22.92
2023-02-03T07:54:25.835Z,22.92
2023-02-03T07:55:25.880Z,22.92
2023-02-03T07:56:25.889Z,22.92
2023-02-03T07:57:25.899Z,22.92
2023-02-03T07:58:25.942Z,22.92
2023-02-03T07:59:25.955Z,22.92
2023-02-03T08:00:26.318Z,22.93
2023-02-03T08:01:26.097Z,22.92
2023-02-03T08:02:26.111Z,22.92
2023-02-03T08:03:26.149Z,22.92
2023-02-03T08:04:26.147Z,22.92
2023-02-03T08:05:26.195Z,22.93
2023-02-03T08:06:26.219Z,22.93
2023-02-03T08:07:26.291Z,22.93
2023-02-03T08:08:26.309Z,22.94
2023-02-03T08:09:26.363Z,22.93
2023-02-03T08:10:26.779Z,22.94
2023-02-03T08:11:26.398Z,22.94
2023-02-03T08:12:26.448Z,22.94
2023-02-03T08:13:26.469Z,22.94
2023-02-03T08:14:26.575Z,22.94
2023-02-03T08:15:26.594Z,22.94
2023-02-03T08:16:26.693Z,22.94
2023-02-03T08:17:26.599Z,22.95
2023-02-03T08:18:26.631Z,22.94
2023-02-03T08:19:26.697Z,22.95
2023-02-03T08:20:27.306Z,22.96
2023-02-03T08:21:26.914Z,22.95
2023-02-03T08:22:26.792Z,22.96
2023-02-03T08:23:26.821Z,22.96
2023-02-03T08:24:26.855Z,22.96
2023-02-03T08:25:26.934Z,22.97
2023-02-03T08:26:26.951Z,22.97
2023-02-03T08:27:26.951Z,22.97
2023-02-03T08:28:27.049Z,22.97
2023-02-03T08:29:27.064Z,22.98
2023-02-03T08:30:27.439Z,22.96
2023-02-03T08:31:27.559Z,22.96
2023-02-03T08:32:27.126Z,22.91
2023-02-03T08:33:27.193Z,22.83
2023-02-03T08:34:27.208Z,22.72
2023-02-03T08:35:27.275Z,22.66
2023-02-03T08:36:27.421Z,22.67
2023-02-03T08:37:27.373Z,22.67
2023-02-03T08:38:27.445Z,22.70
2023-02-03T08:39:27.481Z,22.70
2023-02-03T08:40:27.846Z,22.69
2023-02-03T08:41:27.548Z,22.69
2023-02-03T08:42:27.617Z,22.69
2023-02-03T08:43:27.675Z,22.68
2023-02-03T08:44:27.753Z,22.64
2023-02-03T08:45:27.900Z,22.64
2023-02-03T08:46:27.925Z,22.58
2023-02-03T08:47:27.969Z,22.53
2023-02-03T08:48:27.993Z,22.46
2023-02-03T08:49:28.074Z,22.39
2023-02-03T08:50:28.559Z,22.34
2023-02-03T08:51:28.244Z,22.30
2023-02-03T08:52:28.293Z,22.35
2023-02-03T08:53:28.370Z,22.40
2023-02-03T08:54:28.467Z,22.45
2023-02-03T08:55:28.525Z,22.52
2023-02-03T08:56:28.543Z,22.60
2023-02-03T08:57:28.633Z,22.68
2023-02-03T08:58:28.639Z,22.77
2023-02-03T08:59:28.708Z,22.86
2023-02-03T09:00:29.200Z,22.94
2023-02-03T09:01:29.017Z,23.02
2023-02-03T09:02:28.773Z,23.09
2023-02-03T09:03:28.849Z,23.15
2023-02-03T09:04:28.936Z,23.20
2023-02-03T09:05:28.971Z,23.26
2023-02-03T09:06:29.056Z,23.31
2023-02-03T09:07:29.125Z,23.35
2023-02-03T09:08:29.217Z,23.39
2023-02-03T09:09:29.943Z,23.42
2023-02-03T09:10:29.734Z,23.44
2023-02-03T09:11:29.508Z,23.47
2023-02-03T09:12:29.443Z,23.50
2023-02-03T09:13:29.514Z,23.52
2023-02-03T09:14:29.570Z,23.54
2023-02-03T09:15:29.636Z,23.57
2023-02-03T09:16:29.701Z,23.58
2023-02-03T09:21:38.850Z,23.66
2023-02-03T09:22:30.907Z,23.67
2023-02-03T09:23:29.928Z,23.69
2023-02-03T09:24:29.971Z,23.69
2023-02-03T09:25:29.949Z,23.71
2023-02-03T09:26:29.958Z,23.73
2023-02-03T09:27:29.953Z,23.75
2023-02-03T09:28:29.933Z,23.76
2023-02-03T09:29:29.942Z,23.77
2023-02-03T09:30:30.381Z,23.79
2023-02-03T09:31:29.952Z,23.79
2023-02-03T09:32:29.932Z,23.79
2023-02-03T09:33:29.965Z,23.77
2023-02-03T09:34:29.960Z,23.76
2023-02-03T09:35:29.959Z,23.73
2023-02-03T09:36:30.444Z,23.71
2023-02-03T09:37:29.986Z,23.72
2023-02-03T10:27:32.998Z,22.96
2023-02-03T10:35:32.936Z,23.39
2023-02-03T10:36:33.029Z,23.44
2023-02-03T10:37:33.076Z,23.48
2023-02-03T10:38:33.142Z,23.52
2023-02-03T10:39:33.224Z,23.56
2023-02-03T10:40:33.323Z,23.59
2023-02-03T10:41:33.376Z,23.56
2023-02-03T10:42:33.480Z,23.50
2023-02-03T10:43:33.514Z,23.44
2023-02-03T10:44:33.567Z,23.40
2023-02-03T10:45:33.618Z,23.36
2023-02-03T10:47:33.711Z,23.37
2023-02-03T10:48:33.753Z,23.30
2023-02-03T10:49:33.771Z,23.15
2023-02-03T10:50:33.791Z,22.95
2023-02-03T10:51:33.843Z,22.78
2023-02-03T10:52:33.997Z,22.63
2023-02-03T10:53:33.988Z,22.48
2023-02-03T10:54:34.064Z,22.41
2023-02-03T10:55:34.155Z,22.42
2023-02-03T10:56:34.185Z,22.45
2023-02-03T10:57:34.497Z,22.46
2023-02-03T10:58:34.418Z,22.48
2023-02-03T10:59:34.432Z,22.51
2023-02-03T11:00:34.508Z,22.52
2023-02-03T11:01:34.535Z,22.54
2023-02-03T11:02:35.067Z,22.57
2023-02-03T11:03:34.671Z,22.63
2023-02-03T11:04:34.742Z,22.69
2023-02-03T11:05:34.737Z,22.75
2023-02-03T11:06:34.797Z,22.82
2023-02-03T11:07:34.983Z,22.89
2023-02-03T11:08:34.855Z,22.96
2023-02-03T11:09:34.911Z,23.03
2023-02-03T11:10:34.980Z,23.09
2023-02-03T11:11:34.937Z,23.15
2023-02-03T11:12:34.980Z,23.21
2023-02-03T11:13:34.978Z,23.28
2023-02-03T11:14:35.054Z,23.32
2023-02-03T11:15:35.042Z,23.38
2023-02-03T11:16:35.060Z,23.43
2023-02-03T11:17:35.497Z,23.47
2023-02-03T11:18:35.106Z,23.52
2023-02-03T11:19:35.195Z,23.56
2023-02-03T11:20:35.232Z,23.59
2023-02-03T11:21:35.320Z,23.62
2023-02-03T11:22:35.428Z,23.65
2023-02-03T11:23:35.398Z,23.67
2023-02-03T11:24:35.474Z,23.70
2023-02-03T11:25:35.513Z,23.72
2023-02-03T11:26:35.504Z,23.75
2023-02-03T11:27:35.602Z,23.77
2023-02-03T11:28:35.628Z,23.79
2023-02-03T11:29:35.697Z,23.82
2023-02-03T11:30:35.719Z,23.83
2023-02-03T11:31:36.118Z,23.85
2023-02-03T11:32:36.018Z,23.87
2023-02-03T11:33:35.906Z,23.88
2023-02-03T11:34:35.976Z,23.89
2023-02-03T11:35:35.987Z,23.90
2023-02-03T11:37:36.493Z,23.90
2023-02-03T11:38:36.934Z,23.90
2023-02-03T11:39:36.169Z,23.91
2023-02-03T11:40:36.227Z,23.92
2023-02-03T11:41:36.254Z,23.92
2023-02-03T11:42:36.504Z,23.92
2023-02-03T11:43:36.383Z,23.91
2023-02-03T11:44:36.401Z,23.89
2023-02-03T11:45:36.474Z,23.87
2023-02-03T11:46:36.619Z,23.86
2023-02-03T11:47:37.029Z,23.84
2023-02-03T11:48:36.582Z,23.84
2023-02-03T11:49:36.674Z,23.82
2023-02-03T11:50:36.731Z,23.81
2023-02-03T11:51:36.801Z,23.80
2023-02-03T11:52:36.870Z,23.79
2023-02-03T11:53:47.883Z,23.78
2023-02-03T11:54:37.920Z,23.76
2023-02-03T11:55:36.866Z,23.76
2023-02-03T11:56:36.887Z,23.75
2023-02-03T11:57:36.888Z,23.74
2023-02-03T11:58:37.037Z,23.74
2023-02-03T11:59:36.902Z,23.73
2023-02-03T12:00:36.910Z,23.73
2023-02-03T12:01:36.882Z,23.72
2023-02-03T12:02:36.956Z,23.72
2023-02-03T12:03:37.028Z,23.72
2023-02-03T12:04:37.111Z,23.71
2023-02-03T12:05:37.002Z,23.70
2023-02-03T12:06:37.087Z,23.69
2023-02-03T12:07:37.111Z,23.69
2023-02-03T12:08:37.211Z,23.69
2023-02-03T12:09:37.239Z,23.69
2023-02-03T12:10:37.322Z,23.68
2023-02-03T12:11:37.336Z,23.68
2023-02-03T12:12:37.406Z,23.67
2023-02-03T12:13:37.445Z,23.67
2023-02-03T12:14:37.510Z,23.67
2023-02-03T12:15:37.565Z,23.67
2023-02-03T12:16:37.733Z,23.67
2023-02-03T12:17:37.674Z,23.68
2023-02-03T12:18:37.750Z,23.68
2023-02-03T12:19:37.781Z,23.68
2023-02-03T12:20:37.859Z,23.68
2023-02-03T12:21:37.879Z,23.67
2023-02-03T12:22:37.950Z,23.67
2023-02-03T12:23:37.963Z,23.68
2023-02-03T12:24:38.045Z,23.67
2023-02-03T12:25:38.100Z,23.68
2023-02-03T12:26:38.178Z,23.67
2023-02-03T12:27:38.364Z,23.67
2023-02-03T12:28:38.598Z,23.67
2023-02-03T12:29:38.332Z,23.68
2023-02-03T12:30:38.424Z,23.67
2023-02-03T12:31:38.529Z,23.67
2023-02-03T12:32:38.447Z,23.66
2023-02-03T12:33:38.529Z,23.67
2023-02-03T12:34:38.587Z,23.67
2023-02-03T12:35:38.632Z,23.67
2023-02-03T12:36:38.665Z,23.67
2023-02-03T12:37:38.727Z,23.67
2023-02-03T12:39:38.810Z,23.66
2023-02-03T12:40:38.888Z,23.66
2023-02-03T12:41:38.896Z,23.66
2023-02-03T12:42:38.927Z,23.67
2023-02-03T12:43:39.020Z,23.65
2023-02-03T12:45:39.145Z,23.66
2023-02-03T12:46:39.169Z,23.66
2023-02-03T12:47:39.188Z,23.66
2023-02-03T12:48:39.233Z,23.65
2023-02-03T12:49:39.287Z,23.66
2023-02-03T12:50:39.337Z,23.65
2023-02-03T13:17:41.021Z,23.63
2023-02-03T13:18:41.072Z,23.63
2023-02-03T13:19:41.152Z,23.63
2023-02-03T13:20:41.194Z,23.64
2023-02-03T13:21:41.265Z,23.64
2023-02-03T13:22:41.323Z,23.64
2023-02-03T13:23:41.393Z,23.64
2023-02-03T13:24:41.434Z,23.63
2023-02-03T13:25:41.528Z,23.64
2023-02-03T13:26:41.609Z,23.64
2023-02-03T13:27:41.701Z,23.63
2023-02-03T13:28:41.760Z,23.63
2023-02-03T13:29:41.782Z,23.64
2023-02-03T13:30:41.876Z,23.63
2023-02-03T13:31:41.952Z,23.63
2023-02-03T13:32:41.950Z,23.64
2023-02-03T13:33:42.046Z,23.63
2023-02-03T13:34:42.063Z,23.63
2023-02-03T13:35:42.123Z,23.62
2023-02-03T13:36:42.172Z,23.63
2023-02-03T13:37:42.235Z,23.63
2023-02-03T13:38:42.313Z,23.63
2023-02-03T13:39:42.382Z,23.63
2023-02-03T13:40:42.444Z,23.62
2023-02-03T13:41:42.487Z,23.63
2023-02-03T13:42:42.572Z,23.62
2023-02-03T13:43:42.587Z,23.62
2023-02-03T13:44:42.676Z,23.62
2023-02-03T13:45:42.789Z,23.63
2023-02-03T13:46:42.799Z,23.62
2023-02-03T13:47:42.872Z,23.62
2023-02-03T13:48:42.941Z,23.63
2023-02-03T13:49:43.004Z,23.63
2023-02-03T13:50:43.104Z,23.63
2023-02-03T13:51:43.108Z,23.63
2023-02-03T13:52:43.160Z,23.63
2023-02-03T13:53:43.259Z,23.62
2023-02-03T13:54:43.321Z,23.63
2023-02-03T13:55:43.353Z,23.62
2023-02-03T13:56:43.430Z,23.63
2023-02-03T13:57:43.490Z,23.62
2023-02-03T13:58:43.562Z,23.63
2023-02-03T13:59:43.643Z,23.63
2023-02-03T14:00:43.682Z,23.62
2023-02-03T14:01:43.733Z,23.61
2023-02-03T14:02:43.767Z,23.60
2023-02-03T14:03:43.914Z,23.59
2023-02-03T14:04:43.936Z,23.59
2023-02-03T14:05:43.894Z,23.60
2023-02-03T14:06:43.959Z,23.58
2023-02-03T14:07:43.969Z,23.60
2023-02-03T14:08:44.020Z,23.58
2023-02-03T14:09:44.064Z,23.58
2023-02-03T14:10:44.145Z,23.59
2023-02-03T14:11:44.231Z,23.59
2023-02-03T14:12:44.239Z,23.58
2023-02-03T14:13:44.312Z,23.59
2023-02-03T14:14:44.365Z,23.58
2023-02-03T14:15:44.407Z,23.59
2023-02-03T14:16:44.548Z,23.58
2023-02-03T14:17:44.540Z,23.58
2023-02-03T14:18:44.563Z,23.58
2023-02-03T14:19:44.630Z,23.57
2023-02-03T14:20:44.704Z,23.58
2023-02-03T14:21:44.744Z,23.57
2023-02-03T14:22:44.813Z,23.57
2023-02-03T14:23:44.856Z,23.56
2023-02-03T14:24:44.860Z,23.56
2023-02-03T14:25:44.900Z,23.57
2023-02-03T14:26:44.962Z,23.56
2023-02-03T14:27:45.086Z,23.55
2023-02-03T14:28:45.046Z,23.56
2023-02-03T14:29:45.147Z,23.56
2023-02-03T14:30:45.255Z,23.56
2023-02-03T14:31:45.385Z,23.55
2023-02-03T14:32:45.320Z,23.55
2023-02-03T14:33:45.338Z,23.55
2023-02-03T14:34:45.436Z,23.56
2023-02-03T14:35:45.432Z,23.55
2023-02-03T14:36:45.453Z,23.56
2023-02-03T14:37:45.510Z,23.56
2023-02-03T14:38:45.571Z,23.57
2023-02-03T14:39:45.642Z,23.57
2023-02-03T14:40:45.741Z,23.56
2023-02-03T14:41:45.808Z,23.56
2023-02-03T14:42:45.832Z,23.57
2023-02-03T14:43:45.953Z,23.56
2023-02-03T14:44:45.966Z,23.57
2023-02-03T14:45:46.015Z,23.56
2023-02-03T14:46:46.063Z,23.57
2023-02-03T14:47:46.151Z,23.57
2023-02-03T14:48:46.192Z,23.57
2023-02-03T14:49:46.264Z,23.57
2023-02-03T14:50:46.340Z,23.57
2023-02-03T14:51:46.369Z,23.57
2023-02-03T14:52:46.401Z,23.57
2023-02-03T14:53:46.477Z,23.58
2023-02-03T14:54:46.544Z,23.58
2023-02-03T14:55:46.614Z,23.58
2023-02-03T14:56:46.659Z,23.58
2023-02-03T14:57:46.715Z,23.58
2023-02-03T14:58:46.751Z,23.58
2023-02-03T14:59:46.832Z,23.58
2023-02-03T15:00:46.884Z,23.59
2023-02-03T15:01:46.976Z,23.59
2023-02-03T15:02:46.992Z,23.60
2023-02-03T15:03:47.015Z,23.59
2023-02-03T15:04:47.176Z,23.59
2023-02-03T15:05:47.161Z,23.60
2023-02-03T15:06:47.213Z,23.60
2023-02-03T15:07:47.295Z,23.59
2023-02-03T15:08:47.364Z,23.60
2023-02-03T15:09:47.431Z,23.60
2023-02-03T15:10:47.495Z,23.60
2023-02-03T15:11:47.538Z,23.60
2023-02-03T15:12:47.613Z,23.59
2023-02-03T15:13:47.688Z,23.60
2023-02-03T15:14:47.754Z,23.60
2023-02-03T15:15:47.786Z,23.60
2023-02-03T15:16:47.869Z,23.60
2023-02-03T15:17:47.933Z,23.60
2023-02-03T15:18:47.994Z,23.61
2023-02-03T15:19:48.004Z,23.61
2023-02-03T15:20:48.062Z,23.61
2023-02-03T15:21:48.155Z,23.61
2023-02-03T15:22:48.218Z,23.61
2023-02-03T15:23:48.451Z,23.61
2023-02-03T15:24:48.337Z,23.60
2023-02-03T15:25:48.389Z,23.61
2023-02-03T15:26:48.459Z,23.61
2023-02-03T15:27:48.596Z,23.60
2023-02-03T15:28:48.579Z,23.60
2023-02-03T15:29:48.618Z,23.60
2023-02-03T15:30:48.835Z,23.60
2023-02-03T15:31:48.907Z,23.61
2023-02-03T15:32:48.798Z,23.61
2023-02-03T15:33:48.837Z,23.61
2023-02-03T15:34:48.943Z,23.61
2023-02-03T15:35:48.957Z,23.61
2023-02-03T15:36:49.038Z,23.61
2023-02-03T15:37:49.114Z,23.61
2023-02-03T15:38:49.157Z,23.61
2023-02-03T15:39:49.270Z,23.60
2023-02-03T15:40:49.265Z,23.61
2023-02-03T15:41:49.380Z,23.61
2023-02-03T15:42:49.411Z,23.61
2023-02-03T15:43:49.496Z,23.61
2023-02-03T15:44:49.520Z,23.61
2023-02-03T15:45:49.578Z,23.61
2023-02-03T15:46:49.759Z,23.60
2023-02-03T15:47:49.732Z,23.60
2023-02-03T15:48:49.792Z,23.60
2023-02-03T15:49:49.879Z,23.60
2023-02-03T15:50:49.954Z,23.59
2023-02-03T15:51:50.019Z,23.59
2023-02-03T15:52:50.075Z,23.60
2023-02-03T15:53:50.133Z,23.60
2023-02-03T15:54:50.287Z,23.59
2023-02-03T15:55:50.291Z,23.59
2023-02-03T15:56:50.410Z,23.59
2023-02-03T15:57:50.384Z,23.59
2023-02-03T15:58:50.412Z,23.59
2023-02-03T15:59:50.456Z,23.59
2023-02-03T16:00:50.490Z,23.59
2023-02-03T16:01:50.558Z,23.59
2023-02-03T16:02:50.609Z,23.59
2023-02-03T16:03:50.580Z,23.58
2023-02-03T16:04:50.659Z,23.59